createdAt,value
2022-11-10T00:00:02.479Z,11.48
2022-11-10T00:15:02.107Z,11.33
2022-11-10T00:30:01.807Z,11.26
2022-11-10T00:45:02.490Z,11.2
2022-11-10T01:00:02.129Z,11.11
2022-11-10T01:15:01.742Z,10.98
2022-11-10T01:30:02.465Z,10.92
2022-11-10T01:45:02.119Z,10.83
2022-11-10T02:00:01.767Z,10.74
2022-11-10T02:15:02.454Z,10.64
2022-11-10T02:30:02.088Z,10.54
2022-11-10T02:45:01.735Z,10.46
2022-11-10T03:00:02.376Z,10.41
2022-11-10T03:15:02.048Z,10.39
2022-11-10T03:30:01.753Z,10.37
2022-11-10T03:45:02.417Z,10.33
2022-11-10T04:00:02.129Z,10.34
2022-11-10T04:15:01.798Z,10.3
2022-11-10T04:30:02.465Z,10.34
2022-11-10T04:45:02.103Z,10.33
2022-11-10T05:00:01.778Z,10.34
2022-11-10T05:15:02.486Z,10.34
2022-11-10T05:30:01.738Z,10.41
2022-11-10T05:45:02.382Z,10.5
2022-11-10T06:00:02.043Z,10.57
2022-11-10T06:15:01.754Z,10.59
2022-11-10T06:30:02.429Z,10.57
2022-11-10T06:45:02.146Z,10.62
2022-11-10T07:00:01.830Z,10.58
2022-11-10T07:15:02.486Z,10.6
2022-11-10T07:30:02.231Z,10.58
2022-11-10T07:45:01.870Z,10.64
2022-11-10T08:00:02.508Z,10.64
2022-11-10T08:15:02.227Z,10.66
2022-11-10T08:30:01.954Z,10.69
2022-11-10T08:45:01.707Z,10.74
2022-11-10T09:00:02.399Z,10.96
2022-11-10T09:15:02.066Z,11.33
2022-11-10T09:30:01.790Z,11.55
2022-11-10T09:45:02.443Z,11.88
2022-11-10T10:00:02.093Z,12.2
2022-11-10T10:15:01.749Z,12.47
2022-11-10T10:30:02.483Z,12.71
2022-11-10T10:45:02.253Z,13.12
2022-11-10T11:00:01.970Z,13.4
2022-11-10T11:15:01.655Z,13.72
2022-11-10T11:30:02.368Z,13.83
2022-11-10T11:45:02.078Z,14.2
2022-11-10T12:00:01.792Z,14.5
2022-11-10T12:15:02.460Z,14.52
2022-11-10T12:30:02.150Z,14.57
2022-11-10T12:45:01.861Z,14.61
2022-11-10T13:00:02.539Z,14.66
2022-11-10T13:15:02.156Z,14.92
2022-11-10T13:30:01.872Z,14.97
2022-11-10T13:45:02.563Z,14.99
2022-11-10T14:00:02.254Z,15.04
2022-11-10T14:15:01.945Z,15.11
2022-11-10T14:30:01.708Z,15.16
2022-11-10T14:45:02.349Z,15.18
2022-11-10T15:00:02.099Z,15.06
2022-11-10T15:15:01.747Z,14.84
2022-11-10T15:30:02.418Z,14.65
2022-11-10T15:45:02.064Z,14.44
2022-11-10T16:00:01.769Z,14.25
2022-11-10T16:15:02.449Z,14.09
2022-11-10T16:30:02.319Z,13.84
2022-11-10T16:45:02.054Z,13.66
2022-11-10T17:00:01.783Z,13.45
2022-11-10T17:15:02.502Z,13.3
2022-11-10T17:30:02.188Z,13.15
2022-11-10T17:45:01.874Z,13
2022-11-10T18:00:02.585Z,12.85
2022-11-10T18:15:02.246Z,12.77
2022-11-10T18:30:01.899Z,12.64
2022-11-10T18:45:02.544Z,12.59
2022-11-10T19:00:02.230Z,12.46
2022-11-10T19:15:01.890Z,12.35
2022-11-10T19:30:01.588Z,12.26
2022-11-10T19:45:02.258Z,12.13
2022-11-10T20:00:01.950Z,12.08
2022-11-10T20:15:01.607Z,12
2022-11-10T20:30:02.265Z,11.92
2022-11-10T20:45:01.970Z,11.82
2022-11-10T21:00:01.620Z,11.73
2022-11-10T21:15:02.324Z,11.62
2022-11-10T21:30:01.996Z,11.56
2022-11-10T21:45:01.682Z,11.42
2022-11-10T22:00:02.383Z,11.3
2022-11-10T22:15:02.041Z,11.19
2022-11-10T22:30:01.760Z,11.12
2022-11-10T22:45:02.443Z,11.05
2022-11-10T23:00:02.184Z,10.95
2022-11-10T23:15:01.795Z,10.87
2022-11-10T23:30:02.494Z,10.75
2022-11-10T23:45:02.146Z,10.62
